sensor_id;sensor_type;location;lat;lon;timestamp;pressure;altitude;pressure_sealevel;temperature;humidity
25232;BME280;13176;51.140;6.290;2023-10-08T00:00:05;101537.00;;;20.76;67.01
25232;BME280;13176;51.140;6.290;2023-10-08T00:02:54;101585.03;;;20.70;68.28
25232;BME280;13176;51.140;6.290;2023-10-08T00:05:20;101587.13;;;20.84;67.47
25232;BME280;13176;51.140;6.290;2023-10-08T00:07:48;101551.19;;;20.75;67.16
25232;BME280;13176;51.140;6.290;2023-10-08T00:10:17;101558.88;;;20.83;67.30
25232;BME280;13176;51.140;6.290;2023-10-08T00:12:44;101578.38;;;20.82;67.12
25232;BME280;13176;51.140;6.290;2023-10-08T00:15:13;101518.31;;;20.38;67.98
25232;BME280;13176;51.140;6.290;2023-10-08T00:17:40;101558.00;;;20.61;67.74
25232;BME280;13176;51.140;6.290;2023-10-08T00:20:08;101490.44;;;20.28;67.34
25232;BME280;13176;51.140;6.290;2023-10-08T00:22:42;101617.19;;;21.06;66.83
25232;BME280;13176;51.140;6.290;2023-10-08T00:25:08;101622.00;;;20.96;67.11
25232;BME280;13176;51.140;6.290;2023-10-08T00:27:38;101494.84;;;20.28;67.04
25232;BME280;13176;51.140;6.290;2023-10-08T00:30:06;101580.72;;;20.68;67.04
25232;BME280;13176;51.140;6.290;2023-10-08T00:32:44;101524.81;;;20.08;67.87
25232;BME280;13176;51.140;6.290;2023-10-08T00:35:11;101578.06;;;20.68;67.42
25232;BME280;13176;51.140;6.290;2023-10-08T00:37:43;101586.28;;;20.83;67.07
25232;BME280;13176;51.140;6.290;2023-10-08T00:40:11;101469.78;;;19.92;67.10
25232;BME280;13176;51.140;6.290;2023-10-08T00:42:39;101570.22;;;20.65;66.58
25232;BME280;13176;51.140;6.290;2023-10-08T00:45:23;101495.25;;;20.19;67.01
25232;BME280;13176;51.140;6.290;2023-10-08T00:47:50;101519.50;;;20.08;67.33
25232;BME280;13176;51.140;6.290;2023-10-08T00:50:21;101596.22;;;20.77;66.40
25232;BME280;13176;51.140;6.290;2023-10-08T00:52:49;101605.91;;;21.01;65.75
25232;BME280;13176;51.140;6.290;2023-10-08T00:55:35;101599.09;;;20.51;66.49
25232;BME280;13176;51.140;6.290;2023-10-08T00:58:02;101589.28;;;20.53;66.27
25232;BME280;13176;51.140;6.290;2023-10-08T01:00:38;101577.56;;;20.59;66.00
25232;BME280;13176;51.140;6.290;2023-10-08T01:03:08;101514.91;;;20.35;65.45
25232;BME280;13176;51.140;6.290;2023-10-08T01:05:42;101640.41;;;20.78;66.21
25232;BME280;13176;51.140;6.290;2023-10-08T01:08:14;101562.81;;;20.30;66.61
25232;BME280;13176;51.140;6.290;2023-10-08T01:10:48;101537.34;;;19.82;67.48
25232;BME280;13176;51.140;6.290;2023-10-08T01:13:24;101603.44;;;20.31;67.43
25232;BME280;13176;51.140;6.290;2023-10-08T01:15:54;101509.28;;;19.99;66.88
25232;BME280;13176;51.140;6.290;2023-10-08T01:18:21;101623.22;;;20.67;67.05
25232;BME280;13176;51.140;6.290;2023-10-08T01:20:55;101606.00;;;20.55;67.00
25232;BME280;13176;51.140;6.290;2023-10-08T01:23:22;101489.56;;;20.06;66.24
25232;BME280;13176;51.140;6.290;2023-10-08T01:25:53;101506.81;;;20.16;66.16
25232;BME280;13176;51.140;6.290;2023-10-08T01:28:38;101619.59;;;20.69;66.32
25232;BME280;13176;51.140;6.290;2023-10-08T01:31:05;101630.19;;;20.69;66.39
25232;BME280;13176;51.140;6.290;2023-10-08T01:33:33;101475.88;;;19.72;66.72
25232;BME280;13176;51.140;6.290;2023-10-08T01:36:05;101615.00;;;20.51;66.52
25232;BME280;13176;51.140;6.290;2023-10-08T01:38:34;101542.91;;;19.52;67.72
25232;BME280;13176;51.140;6.290;2023-10-08T01:41:00;101614.25;;;20.26;67.88
25232;BME280;13176;51.140;6.290;2023-10-08T01:43:34;101559.69;;;19.75;67.59
25232;BME280;13176;51.140;6.290;2023-10-08T01:46:02;101531.50;;;19.72;67.68
25232;BME280;13176;51.140;6.290;2023-10-08T01:48:29;101589.53;;;20.03;67.41
25232;BME280;13176;51.140;6.290;2023-10-08T01:51:03;101583.25;;;20.05;67.39
25232;BME280;13176;51.140;6.290;2023-10-08T01:53:35;101514.47;;;19.56;67.53
25232;BME280;13176;51.140;6.290;2023-10-08T01:56:02;101599.09;;;20.07;67.02
25232;BME280;13176;51.140;6.290;2023-10-08T01:58:30;101590.97;;;20.11;66.94
25232;BME280;13176;51.140;6.290;2023-10-08T02:00:57;101598.06;;;20.11;66.68
25232;BME280;13176;51.140;6.290;2023-10-08T02:03:27;101561.50;;;19.96;66.51
25232;BME280;13176;51.140;6.290;2023-10-08T02:05:56;101612.56;;;20.24;66.20
25232;BME280;13176;51.140;6.290;2023-10-08T02:08:26;101567.78;;;19.93;66.29
25232;BME280;13176;51.140;6.290;2023-10-08T02:10:53;101600.34;;;19.97;66.40
25232;BME280;13176;51.140;6.290;2023-10-08T02:13:19;101588.13;;;19.93;66.34
25232;BME280;13176;51.140;6.290;2023-10-08T02:15:50;101565.81;;;19.75;65.73
25232;BME280;13176;51.140;6.290;2023-10-08T02:18:20;101605.00;;;19.90;65.45
25232;BME280;13176;51.140;6.290;2023-10-08T02:20:47;101607.44;;;20.19;64.91
25232;BME280;13176;51.140;6.290;2023-10-08T02:23:14;101528.81;;;19.74;64.57
25232;BME280;13176;51.140;6.290;2023-10-08T02:25:41;101499.66;;;19.51;64.49
25232;BME280;13176;51.140;6.290;2023-10-08T02:28:08;101513.88;;;19.71;64.48
25232;BME280;13176;51.140;6.290;2023-10-08T02:30:35;101546.81;;;19.87;64.53
25232;BME280;13176;51.140;6.290;2023-10-08T02:33:03;101522.03;;;19.43;64.37
25232;BME280;13176;51.140;6.290;2023-10-08T02:35:32;101564.09;;;19.97;64.32
25232;BME280;13176;51.140;6.290;2023-10-08T02:37:59;101601.19;;;20.43;63.94
25232;BME280;13176;51.140;6.290;2023-10-08T02:40:25;101499.97;;;19.88;63.80
25232;BME280;13176;51.140;6.290;2023-10-08T02:42:54;101535.13;;;19.70;63.85
25232;BME280;13176;51.140;6.290;2023-10-08T02:45:27;101606.63;;;20.17;63.86
25232;BME280;13176;51.140;6.290;2023-10-08T02:47:54;101616.22;;;20.21;63.83
25232;BME280;13176;51.140;6.290;2023-10-08T02:50:22;101590.84;;;19.91;63.74
25232;BME280;13176;51.140;6.290;2023-10-08T02:52:49;101588.69;;;20.02;63.68
25232;BME280;13176;51.140;6.290;2023-10-08T02:55:19;101632.13;;;20.21;63.64
25232;BME280;13176;51.140;6.290;2023-10-08T02:58:01;101643.16;;;20.09;63.22
25232;BME280;13176;51.140;6.290;2023-10-08T03:00:30;101573.06;;;19.70;63.59
25232;BME280;13176;51.140;6.290;2023-10-08T03:03:01;101576.38;;;19.77;63.97
25232;BME280;13176;51.140;6.290;2023-10-08T03:05:28;101642.31;;;20.09;63.55
25232;BME280;13176;51.140;6.290;2023-10-08T03:08:03;101579.66;;;19.60;64.02
25232;BME280;13176;51.140;6.290;2023-10-08T03:10:39;101668.31;;;19.99;64.49
25232;BME280;13176;51.140;6.290;2023-10-08T03:13:08;101655.72;;;20.04;64.44
25232;BME280;13176;51.140;6.290;2023-10-08T03:15:36;101600.25;;;19.75;64.17
25232;BME280;13176;51.140;6.290;2023-10-08T03:18:14;101643.53;;;20.00;64.40
25232;BME280;13176;51.140;6.290;2023-10-08T03:20:42;101655.06;;;19.98;63.89
25232;BME280;13176;51.140;6.290;2023-10-08T03:23:16;101663.75;;;20.03;63.87
25232;BME280;13176;51.140;6.290;2023-10-08T03:26:03;101658.34;;;19.81;64.24
25232;BME280;13176;51.140;6.290;2023-10-08T03:28:37;101671.97;;;19.95;63.99
25232;BME280;13176;51.140;6.290;2023-10-08T03:31:07;101618.06;;;19.48;64.48
25232;BME280;13176;51.140;6.290;2023-10-08T03:33:44;101630.28;;;19.52;64.29
25232;BME280;13176;51.140;6.290;2023-10-08T03:36:15;101580.72;;;19.05;64.78
25232;BME280;13176;51.140;6.290;2023-10-08T03:38:47;101669.47;;;19.66;64.84
25232;BME280;13176;51.140;6.290;2023-10-08T03:41:21;101675.09;;;19.82;64.62
25232;BME280;13176;51.140;6.290;2023-10-08T03:43:54;101574.16;;;19.18;64.54
25232;BME280;13176;51.140;6.290;2023-10-08T03:46:33;101590.41;;;19.32;64.43
25232;BME280;13176;51.140;6.290;2023-10-08T03:49:07;101650.00;;;19.67;64.75
25232;BME280;13176;51.140;6.290;2023-10-08T03:51:42;101667.63;;;19.68;64.84
25232;BME280;13176;51.140;6.290;2023-10-08T03:54:08;101567.22;;;19.14;64.64
25232;BME280;13176;51.140;6.290;2023-10-08T03:56:35;101651.06;;;19.63;65.37
25232;BME280;13176;51.140;6.290;2023-10-08T03:59:07;101636.59;;;19.48;64.57
25232;BME280;13176;51.140;6.290;2023-10-08T04:01:44;101652.19;;;19.56;64.75
25232;BME280;13176;51.140;6.290;2023-10-08T04:04:11;101625.91;;;19.51;64.43
25232;BME280;13176;51.140;6.290;2023-10-08T04:06:41;101593.03;;;19.32;64.10
25232;BME280;13176;51.140;6.290;2023-10-08T04:09:15;101625.44;;;19.12;64.72
25232;BME280;13176;51.140;6.290;2023-10-08T04:11:44;101670.63;;;19.59;64.16
25232;BME280;13176;51.140;6.290;2023-10-08T04:14:13;101628.94;;;19.40;64.22
25232;BME280;13176;51.140;6.290;2023-10-08T04:16:42;101649.03;;;19.46;64.45
25232;BME280;13176;51.140;6.290;2023-10-08T04:19:10;101678.34;;;19.65;64.33
25232;BME280;13176;51.140;6.290;2023-10-08T04:21:37;101675.31;;;19.52;64.84
25232;BME280;13176;51.140;6.290;2023-10-08T04:24:06;101607.81;;;19.13;64.48
25232;BME280;13176;51.140;6.290;2023-10-08T04:26:35;101682.22;;;19.55;64.47
25232;BME280;13176;51.140;6.290;2023-10-08T04:29:02;101527.06;;;18.51;64.92
25232;BME280;13176;51.140;6.290;2023-10-08T04:31:29;101547.91;;;18.86;64.28
25232;BME280;13176;51.140;6.290;2023-10-08T04:34:04;101612.50;;;19.05;64.49
25232;BME280;13176;51.140;6.290;2023-10-08T04:36:51;101626.66;;;18.76;65.25
25232;BME280;13176;51.140;6.290;2023-10-08T04:39:21;101672.34;;;19.35;64.45
25232;BME280;13176;51.140;6.290;2023-10-08T04:41:49;101661.78;;;19.35;64.23
25232;BME280;13176;51.140;6.290;2023-10-08T04:44:20;101575.38;;;18.82;64.00
25232;BME280;13176;51.140;6.290;2023-10-08T04:46:48;101541.75;;;18.59;64.47
25232;BME280;13176;51.140;6.290;2023-10-08T04:49:19;101584.25;;;18.53;65.25
25232;BME280;13176;51.140;6.290;2023-10-08T04:51:58;101657.13;;;19.17;64.72
25232;BME280;13176;51.140;6.290;2023-10-08T04:54:25;101593.31;;;18.98;64.16
25232;BME280;13176;51.140;6.290;2023-10-08T04:57:00;101553.13;;;18.61;64.92
25232;BME280;13176;51.140;6.290;2023-10-08T04:59:29;101603.44;;;18.86;64.95
25232;BME280;13176;51.140;6.290;2023-10-08T05:02:04;101644.06;;;19.37;63.83
25232;BME280;13176;51.140;6.290;2023-10-08T05:04:48;101647.03;;;19.28;64.41
25232;BME280;13176;51.140;6.290;2023-10-08T05:07:33;101601.38;;;18.94;64.37
25232;BME280;13176;51.140;6.290;2023-10-08T05:10:13;101703.53;;;19.52;63.89
25232;BME280;13176;51.140;6.290;2023-10-08T05:12:55;101564.16;;;18.74;64.11
25232;BME280;13176;51.140;6.290;2023-10-08T05:15:31;101694.34;;;19.37;64.58
25232;BME280;13176;51.140;6.290;2023-10-08T05:18:32;101525.78;;;18.37;64.67
25232;BME280;13176;51.140;6.290;2023-10-08T05:21:21;101585.81;;;18.59;64.75
25232;BME280;13176;51.140;6.290;2023-10-08T05:24:07;101578.19;;;18.50;64.60
25232;BME280;13176;51.140;6.290;2023-10-08T05:26:39;101650.25;;;18.84;65.16
25232;BME280;13176;51.140;6.290;2023-10-08T05:29:11;101611.84;;;18.45;65.04
25232;BME280;13176;51.140;6.290;2023-10-08T05:32:06;101677.41;;;18.89;65.21
25232;BME280;13176;51.140;6.290;2023-10-08T05:35:05;101579.69;;;18.31;65.08
25232;BME280;13176;51.140;6.290;2023-10-08T05:37:50;101602.72;;;18.26;65.81
25232;BME280;13176;51.140;6.290;2023-10-08T05:40:28;101634.00;;;18.41;66.39
25232;BME280;13176;51.140;6.290;2023-10-08T05:46:04;101613.47;;;18.20;66.22
25232;BME280;13176;51.140;6.290;2023-10-08T05:48:58;101653.66;;;18.60;66.50
25232;BME280;13176;51.140;6.290;2023-10-08T05:51:34;101660.66;;;18.61;66.16
25232;BME280;13176;51.140;6.290;2023-10-08T05:54:32;101691.94;;;18.76;66.19
25232;BME280;13176;51.140;6.290;2023-10-08T05:57:04;101578.13;;;17.95;66.27
25232;BME280;13176;51.140;6.290;2023-10-08T05:59:41;101737.88;;;19.01;66.70
25232;BME280;13176;51.140;6.290;2023-10-08T06:02:41;101737.28;;;18.93;66.88
25232;BME280;13176;51.140;6.290;2023-10-08T06:05:13;101655.22;;;18.38;66.99
25232;BME280;13176;51.140;6.290;2023-10-08T06:07:46;101503.72;;;17.52;66.76
25232;BME280;13176;51.140;6.290;2023-10-08T06:10:26;101741.53;;;18.97;66.87
25232;BME280;13176;51.140;6.290;2023-10-08T06:13:14;101743.22;;;18.99;67.00
25232;BME280;13176;51.140;6.290;2023-10-08T06:15:57;101709.25;;;18.86;66.89
25232;BME280;13176;51.140;6.290;2023-10-08T06:21:01;101610.84;;;18.20;67.32
25232;BME280;13176;51.140;6.290;2023-10-08T06:23:39;101663.25;;;18.35;67.23
25232;BME280;13176;51.140;6.290;2023-10-08T06:26:06;101697.78;;;18.58;67.22
25232;BME280;13176;51.140;6.290;2023-10-08T06:28:42;101668.44;;;18.38;67.71
25232;BME280;13176;51.140;6.290;2023-10-08T06:31:10;101718.03;;;18.59;67.87
25232;BME280;13176;51.140;6.290;2023-10-08T06:33:44;101713.06;;;18.48;68.48
25232;BME280;13176;51.140;6.290;2023-10-08T06:36:11;101646.78;;;17.95;69.84
25232;BME280;13176;51.140;6.290;2023-10-08T06:38:39;101704.00;;;18.57;69.19
25232;BME280;13176;51.140;6.290;2023-10-08T06:41:08;101686.28;;;18.59;68.76
25232;BME280;13176;51.140;6.290;2023-10-08T06:43:57;101713.63;;;18.87;68.44
25232;BME280;13176;51.140;6.290;2023-10-08T06:46:32;101690.47;;;18.66;68.48
25232;BME280;13176;51.140;6.290;2023-10-08T06:48:59;101628.56;;;18.73;67.67
25232;BME280;13176;51.140;6.290;2023-10-08T06:51:30;101704.91;;;19.11;67.66
25232;BME280;13176;51.140;6.290;2023-10-08T06:53:59;101700.78;;;18.75;68.82
25232;BME280;13176;51.140;6.290;2023-10-08T06:56:28;101695.22;;;18.84;68.39
25232;BME280;13176;51.140;6.290;2023-10-08T06:58:55;101673.63;;;18.96;67.20
25232;BME280;13176;51.140;6.290;2023-10-08T07:01:22;101671.31;;;19.13;67.14
25232;BME280;13176;51.140;6.290;2023-10-08T07:03:49;101735.59;;;19.44;67.07
25232;BME280;13176;51.140;6.290;2023-10-08T07:06:16;101692.84;;;19.30;66.79
25232;BME280;13176;51.140;6.290;2023-10-08T07:08:44;101702.41;;;19.34;66.87
25232;BME280;13176;51.140;6.290;2023-10-08T07:11:13;101712.88;;;19.37;67.04
25232;BME280;13176;51.140;6.290;2023-10-08T07:13:40;101718.09;;;19.40;67.24
25232;BME280;13176;51.140;6.290;2023-10-08T07:16:08;101623.06;;;18.79;66.94
25232;BME280;13176;51.140;6.290;2023-10-08T07:18:38;101761.38;;;19.64;67.05
25232;BME280;13176;51.140;6.290;2023-10-08T07:21:05;101726.03;;;19.40;66.61
25232;BME280;13176;51.140;6.290;2023-10-08T07:23:40;101761.47;;;19.36;67.95
25232;BME280;13176;51.140;6.290;2023-10-08T07:26:24;101640.47;;;18.86;67.35
25232;BME280;13176;51.140;6.290;2023-10-08T07:28:52;101743.69;;;19.12;68.35
25232;BME280;13176;51.140;6.290;2023-10-08T07:31:21;101755.25;;;19.37;68.07
25232;BME280;13176;51.140;6.290;2023-10-08T07:33:50;101757.06;;;19.35;67.81
25232;BME280;13176;51.140;6.290;2023-10-08T07:36:26;101751.88;;;19.32;68.04
25232;BME280;13176;51.140;6.290;2023-10-08T07:38:53;101761.22;;;19.43;68.44
25232;BME280;13176;51.140;6.290;2023-10-08T07:41:20;101778.69;;;19.49;68.37
25232;BME280;13176;51.140;6.290;2023-10-08T07:43:47;101773.66;;;19.41;68.31
25232;BME280;13176;51.140;6.290;2023-10-08T07:46:25;101744.56;;;19.40;68.96
25232;BME280;13176;51.140;6.290;2023-10-08T07:48:56;101781.69;;;19.64;68.56
25232;BME280;13176;51.140;6.290;2023-10-08T07:51:24;101754.22;;;19.66;67.98
25232;BME280;13176;51.140;6.290;2023-10-08T07:53:51;101730.84;;;19.53;68.13
25232;BME280;13176;51.140;6.290;2023-10-08T07:56:23;101729.69;;;19.61;67.83
25232;BME280;13176;51.140;6.290;2023-10-08T07:58:51;101670.97;;;19.25;67.66
25232;BME280;13176;51.140;6.290;2023-10-08T08:05:46;101738.72;;;19.80;66.93
25232;BME280;13176;51.140;6.290;2023-10-08T08:08:56;101777.44;;;20.10;66.92
25232;BME280;13176;51.140;6.290;2023-10-08T08:11:23;101792.53;;;20.08;66.96
25232;BME280;13176;51.140;6.290;2023-10-08T08:13:52;101784.16;;;20.20;66.85
25232;BME280;13176;51.140;6.290;2023-10-08T08:16:19;101809.84;;;20.43;66.27
25232;BME280;13176;51.140;6.290;2023-10-08T08:18:52;101676.50;;;19.67;66.01
25232;BME280;13176;51.140;6.290;2023-10-08T08:21:23;101820.28;;;20.47;65.71
25232;BME280;13176;51.140;6.290;2023-10-08T08:23:50;101783.41;;;20.17;66.50
25232;BME280;13176;51.140;6.290;2023-10-08T08:26:18;101813.66;;;20.59;66.58
25232;BME280;13176;51.140;6.290;2023-10-08T08:29:01;101791.59;;;20.58;65.61
25232;BME280;13176;51.140;6.290;2023-10-08T08:31:31;101823.81;;;20.70;66.63
25232;BME280;13176;51.140;6.290;2023-10-08T08:34:03;101732.97;;;20.18;65.70
25232;BME280;13176;51.140;6.290;2023-10-08T08:36:34;101735.06;;;20.33;66.40
25232;BME280;13176;51.140;6.290;2023-10-08T08:39:05;101827.16;;;21.00;65.80
25232;BME280;13176;51.140;6.290;2023-10-08T08:41:38;101673.31;;;20.07;65.54
25232;BME280;13176;51.140;6.290;2023-10-08T08:44:05;101764.56;;;20.47;66.01
25232;BME280;13176;51.140;6.290;2023-10-08T08:46:37;101811.47;;;20.94;66.71
25232;BME280;13176;51.140;6.290;2023-10-08T08:49:06;101746.50;;;20.35;66.18
25232;BME280;13176;51.140;6.290;2023-10-08T08:51:35;101836.44;;;21.11;66.11
25232;BME280;13176;51.140;6.290;2023-10-08T08:54:02;101749.47;;;20.49;66.77
25232;BME280;13176;51.140;6.290;2023-10-08T08:56:41;101759.88;;;20.55;66.01
25232;BME280;13176;51.140;6.290;2023-10-08T08:59:10;101792.56;;;20.56;66.78
25232;BME280;13176;51.140;6.290;2023-10-08T09:01:39;101796.44;;;20.70;67.58
25232;BME280;13176;51.140;6.290;2023-10-08T09:04:06;101682.59;;;20.18;66.30
25232;BME280;13176;51.140;6.290;2023-10-08T09:06:37;101843.25;;;21.18;65.64
25232;BME280;13176;51.140;6.290;2023-10-08T09:09:04;101823.00;;;20.93;66.65
25232;BME280;13176;51.140;6.290;2023-10-08T09:12:00;101793.09;;;20.65;67.01
25232;BME280;13176;51.140;6.290;2023-10-08T09:14:28;101741.47;;;20.51;67.22
25232;BME280;13176;51.140;6.290;2023-10-08T09:17:00;101789.09;;;20.99;67.02
25232;BME280;13176;51.140;6.290;2023-10-08T09:19:27;101770.38;;;21.04;67.44
25232;BME280;13176;51.140;6.290;2023-10-08T09:22:10;101849.59;;;21.59;67.51
25232;BME280;13176;51.140;6.290;2023-10-08T09:24:40;101856.59;;;21.61;67.95
25232;BME280;13176;51.140;6.290;2023-10-08T09:27:08;101751.78;;;20.81;67.66
25232;BME280;13176;51.140;6.290;2023-10-08T09:29:35;101828.34;;;21.59;67.25
25232;BME280;13176;51.140;6.290;2023-10-08T09:32:10;101737.88;;;21.19;66.89
25232;BME280;13176;51.140;6.290;2023-10-08T09:34:36;101765.56;;;21.35;67.15
25232;BME280;13176;51.140;6.290;2023-10-08T09:37:03;101760.25;;;21.35;66.85
25232;BME280;13176;51.140;6.290;2023-10-08T09:39:30;101755.41;;;21.44;66.50
25232;BME280;13176;51.140;6.290;2023-10-08T09:42:04;101761.16;;;21.34;66.06
25232;BME280;13176;51.140;6.290;2023-10-08T09:44:34;101759.19;;;21.39;64.98
25232;BME280;13176;51.140;6.290;2023-10-08T09:47:04;101865.53;;;22.01;65.01
25232;BME280;13176;51.140;6.290;2023-10-08T09:49:34;101760.84;;;21.20;66.13
25232;BME280;13176;51.140;6.290;2023-10-08T09:52:03;101748.38;;;21.22;65.80
25232;BME280;13176;51.140;6.290;2023-10-08T09:55:00;101876.88;;;22.05;66.32
25232;BME280;13176;51.140;6.290;2023-10-08T09:57:30;101741.78;;;21.32;65.17
25232;BME280;13176;51.140;6.290;2023-10-08T09:59:56;101733.72;;;21.33;66.06
25232;BME280;13176;51.140;6.290;2023-10-08T10:02:26;101759.47;;;21.53;66.36
25232;BME280;13176;51.140;6.290;2023-10-08T10:04:55;101747.63;;;21.40;66.94
25232;BME280;13176;51.140;6.290;2023-10-08T10:07:21;101754.47;;;21.45;66.71
25232;BME280;13176;51.140;6.290;2023-10-08T10:09:52;101700.19;;;21.31;66.01
25232;BME280;13176;51.140;6.290;2023-10-08T10:12:25;101856.78;;;22.19;65.57
25232;BME280;13176;51.140;6.290;2023-10-08T10:14:55;101833.22;;;22.10;65.22
25232;BME280;13176;51.140;6.290;2023-10-08T10:17:25;101754.75;;;21.61;65.36
25232;BME280;13176;51.140;6.290;2023-10-08T10:20:10;101864.34;;;22.28;67.16
25232;BME280;13176;51.140;6.290;2023-10-08T10:22:42;101754.63;;;21.64;66.86
25232;BME280;13176;51.140;6.290;2023-10-08T10:25:10;101860.63;;;22.32;68.04
25232;BME280;13176;51.140;6.290;2023-10-08T10:30:22;101746.25;;;21.73;67.56
25232;BME280;13176;51.140;6.290;2023-10-08T10:32:54;101864.34;;;22.28;67.76
25232;BME280;13176;51.140;6.290;2023-10-08T10:35:21;101837.88;;;22.25;67.47
25232;BME280;13176;51.140;6.290;2023-10-08T10:37:51;101866.13;;;22.49;65.65
25232;BME280;13176;51.140;6.290;2023-10-08T10:40:30;101817.66;;;22.21;66.50
25232;BME280;13176;51.140;6.290;2023-10-08T10:43:06;101773.50;;;21.97;68.90
25232;BME280;13176;51.140;6.290;2023-10-08T10:45:33;101768.31;;;21.94;66.97
25232;BME280;13176;51.140;6.290;2023-10-08T10:48:03;101850.34;;;22.45;65.33
25232;BME280;13176;51.140;6.290;2023-10-08T10:50:49;101844.03;;;22.47;65.69
25232;BME280;13176;51.140;6.290;2023-10-08T10:53:39;101842.31;;;22.46;66.17
25232;BME280;13176;51.140;6.290;2023-10-08T10:56:26;101838.31;;;22.56;66.23
25232;BME280;13176;51.140;6.290;2023-10-08T10:59:06;101846.91;;;22.61;66.16
25232;BME280;13176;51.140;6.290;2023-10-08T11:01:45;101860.50;;;22.75;66.34
25232;BME280;13176;51.140;6.290;2023-10-08T11:04:13;101749.59;;;22.17;66.02
25232;BME280;13176;51.140;6.290;2023-10-08T11:06:44;101826.28;;;22.66;66.84
25232;BME280;13176;51.140;6.290;2023-10-08T11:09:12;101807.53;;;22.69;65.52
25232;BME280;13176;51.140;6.290;2023-10-08T11:11:43;101834.91;;;22.91;65.47
25232;BME280;13176;51.140;6.290;2023-10-08T11:14:15;101768.66;;;22.65;65.40
25232;BME280;13176;51.140;6.290;2023-10-08T11:16:46;101785.94;;;22.75;66.26
25232;BME280;13176;51.140;6.290;2023-10-08T11:19:14;101801.78;;;22.97;66.46
25232;BME280;13176;51.140;6.290;2023-10-08T11:21:49;101801.28;;;23.07;65.41
25232;BME280;13176;51.140;6.290;2023-10-08T11:24:30;101839.41;;;23.27;64.95
25232;BME280;13176;51.140;6.290;2023-10-08T11:27:01;101835.22;;;23.22;63.35
25232;BME280;13176;51.140;6.290;2023-10-08T11:29:48;101805.81;;;23.05;63.33
25232;BME280;13176;51.140;6.290;2023-10-08T11:32:22;101847.91;;;23.35;63.60
25232;BME280;13176;51.140;6.290;2023-10-08T11:34:55;101847.16;;;23.32;64.41
25232;BME280;13176;51.140;6.290;2023-10-08T11:37:32;101846.47;;;23.10;65.40
25232;BME280;13176;51.140;6.290;2023-10-08T11:40:02;101788.59;;;22.75;66.39
25232;BME280;13176;51.140;6.290;2023-10-08T11:42:43;101825.75;;;22.97;66.25
25232;BME280;13176;51.140;6.290;2023-10-08T11:45:11;101817.19;;;22.90;67.54
25232;BME280;13176;51.140;6.290;2023-10-08T11:50:27;101823.94;;;22.79;67.00
25232;BME280;13176;51.140;6.290;2023-10-08T11:53:01;101799.59;;;22.49;67.94
25232;BME280;13176;51.140;6.290;2023-10-08T11:55:33;101788.38;;;22.61;66.52
25232;BME280;13176;51.140;6.290;2023-10-08T11:58:07;101821.22;;;22.80;66.82
25232;BME280;13176;51.140;6.290;2023-10-08T12:00:38;101838.78;;;22.84;68.59
25232;BME280;13176;51.140;6.290;2023-10-08T12:03:14;101824.81;;;22.79;67.43
25232;BME280;13176;51.140;6.290;2023-10-08T12:05:48;101831.31;;;22.92;66.79
25232;BME280;13176;51.140;6.290;2023-10-08T12:08:18;101830.00;;;22.82;67.82
25232;BME280;13176;51.140;6.290;2023-10-08T12:10:46;101734.06;;;22.27;68.40
25232;BME280;13176;51.140;6.290;2023-10-08T12:13:15;101830.69;;;22.67;70.01
25232;BME280;13176;51.140;6.290;2023-10-08T12:15:46;101733.28;;;22.25;69.18
25232;BME280;13176;51.140;6.290;2023-10-08T12:18:15;101824.94;;;22.76;69.72
25232;BME280;13176;51.140;6.290;2023-10-08T12:20:58;101821.19;;;22.62;70.78
25232;BME280;13176;51.140;6.290;2023-10-08T12:23:24;101722.84;;;22.20;69.29
25232;BME280;13176;51.140;6.290;2023-10-08T12:25:52;101810.28;;;22.86;69.13
25232;BME280;13176;51.140;6.290;2023-10-08T12:28:22;101808.28;;;22.91;68.51
25232;BME280;13176;51.140;6.290;2023-10-08T12:30:51;101805.09;;;23.02;69.00
25232;BME280;13176;51.140;6.290;2023-10-08T12:33:27;101662.91;;;22.32;68.60
25232;BME280;13176;51.140;6.290;2023-10-08T12:35:56;101807.00;;;23.18;68.91
25232;BME280;13176;51.140;6.290;2023-10-08T12:38:24;101695.44;;;22.57;67.92
25232;BME280;13176;51.140;6.290;2023-10-08T12:40:54;101799.19;;;23.32;68.59
25232;BME280;13176;51.140;6.290;2023-10-08T12:43:21;101749.47;;;23.14;67.50
25232;BME280;13176;51.140;6.290;2023-10-08T12:45:49;101792.84;;;23.53;67.03
25232;BME280;13176;51.140;6.290;2023-10-08T12:48:20;101746.72;;;23.51;66.28
25232;BME280;13176;51.140;6.290;2023-10-08T12:50:47;101752.25;;;23.65;65.67
25232;BME280;13176;51.140;6.290;2023-10-08T12:53:23;101736.06;;;23.51;65.60
25232;BME280;13176;51.140;6.290;2023-10-08T12:59:21;101726.66;;;23.44;65.32
25232;BME280;13176;51.140;6.290;2023-10-08T13:01:49;101748.16;;;23.58;64.85
25232;BME280;13176;51.140;6.290;2023-10-08T13:04:22;101762.09;;;23.81;65.00
25232;BME280;13176;51.140;6.290;2023-10-08T13:06:56;101691.59;;;23.34;64.68
25232;BME280;13176;51.140;6.290;2023-10-08T13:09:37;101718.19;;;23.53;65.00
25232;BME280;13176;51.140;6.290;2023-10-08T13:12:04;101674.59;;;23.20;65.05
25232;BME280;13176;51.140;6.290;2023-10-08T13:14:31;101715.06;;;23.62;64.32
25232;BME280;13176;51.140;6.290;2023-10-08T13:17:01;101737.69;;;23.89;63.49
25232;BME280;13176;51.140;6.290;2023-10-08T13:19:28;101655.94;;;23.37;63.40
25232;BME280;13176;51.140;6.290;2023-10-08T13:21:56;101664.50;;;23.43;64.02
25232;BME280;13176;51.140;6.290;2023-10-08T13:24:23;101755.88;;;23.81;64.08
25232;BME280;13176;51.140;6.290;2023-10-08T13:26:54;101649.22;;;23.30;64.22
25232;BME280;13176;51.140;6.290;2023-10-08T13:29:20;101677.56;;;23.48;64.28
25232;BME280;13176;51.140;6.290;2023-10-08T13:31:46;101720.94;;;23.85;64.45
25232;BME280;13176;51.140;6.290;2023-10-08T13:34:13;101750.75;;;24.10;65.46